Time;durP1;ratioP1;P1;durP2;ratioP2;P2;SDS_P1;SDS_P2;PMS_P1;PMS_P2;Temp;Humidity;BMP_temperature;BMP_pressure;BME280_temperature;BME280_humidity;BME280_pressure;Samples;Min_cycle;Max_cycle;Signal;HPM_P1;HPM_P2
2021/12/11 00:00:34;;;;;;;10.60;2.75;;;4.40;80.90;;;;;;5034775;28;20061;-82
2021/12/11 00:03:16;;;;;;;9.63;2.65;;;4.40;81.00;;;;;;5034795;28;20040;-82
2021/12/11 00:05:49;;;;;;;15.32;2.88;;;4.40;81.00;;;;;;5034963;28;20041;-82
2021/12/11 00:08:21;;;;;;;9.77;2.33;;;4.40;81.10;;;;;;5015806;28;20042;-82
2021/12/11 00:11:00;;;;;;;10.52;2.60;;;4.40;81.10;;;;;;5034574;28;20048;-82
2021/12/11 00:13:31;;;;;;;11.55;2.40;;;4.30;81.10;;;;;;5035464;28;20045;-82
2021/12/11 00:15:59;;;;;;;9.30;2.38;;;4.40;81.10;;;;;;5033501;28;20132;-82
2021/12/11 00:18:29;;;;;;;7.82;2.42;;;4.30;81.20;;;;;;5034726;28;20053;-82
2021/12/11 00:20:59;;;;;;;8.43;2.20;;;4.30;81.20;;;;;;5034680;28;20037;-82
2021/12/11 00:24:03;;;;;;;11.85;2.35;;;4.40;81.20;;;;;;5029924;28;20404;-82
2021/12/11 00:26:35;;;;;;;9.75;2.28;;;4.30;81.30;;;;;;4998635;28;20045;-82
2021/12/11 00:29:04;;;;;;;10.52;2.13;;;4.40;81.30;;;;;;5010729;28;20056;-82
2021/12/11 00:31:33;;;;;;;9.93;3.65;;;4.40;81.30;;;;;;5014335;28;20060;-82
2021/12/11 00:34:00;;;;;;;10.18;2.45;;;4.30;81.30;;;;;;5013927;28;20050;-82
2021/12/11 00:36:32;;;;;;;13.48;2.40;;;4.30;81.40;;;;;;5012225;28;20544;-83
2021/12/11 00:39:11;;;;;;;11.55;2.65;;;4.40;81.40;;;;;;5011881;28;20060;-82
2021/12/11 00:41:40;;;;;;;17.02;3.05;;;4.40;81.40;;;;;;5011428;28;20041;-82
2021/12/11 00:44:07;;;;;;;13.40;2.97;;;4.30;81.40;;;;;;4992317;28;20050;-82
2021/12/11 00:46:34;;;;;;;11.27;2.47;;;4.30;81.40;;;;;;5012829;28;20052;-82
2021/12/11 00:49:17;;;;;;;9.70;3.00;;;4.40;81.40;;;;;;5012164;28;20050;-82
2021/12/11 00:51:53;;;;;;;7.57;2.38;;;4.30;81.40;;;;;;5011977;28;20050;-82
2021/12/11 00:54:22;;;;;;;10.35;2.63;;;4.40;81.40;;;;;;5014421;28;20443;-82
2021/12/11 00:56:50;;;;;;;10.75;2.85;;;4.30;81.40;;;;;;5016151;28;20045;-82
2021/12/11 00:59:20;;;;;;;12.15;2.97;;;4.30;81.40;;;;;;5012246;28;20069;-82
2021/12/11 01:01:57;;;;;;;9.90;2.53;;;4.30;81.40;;;;;;5016651;28;20052;-81
2021/12/11 01:04:41;;;;;;;9.90;2.85;;;4.30;81.40;;;;;;5035987;28;20100;-82
2021/12/11 01:07:20;;;;;;;10.30;2.75;;;4.30;81.40;;;;;;5034320;28;20399;-82
2021/12/11 01:09:55;;;;;;;9.98;2.25;;;4.30;81.40;;;;;;5037017;28;20056;-82
2021/12/11 01:12:39;;;;;;;8.27;2.67;;;4.30;81.40;;;;;;5037091;28;20045;-82
2021/12/11 01:15:25;;;;;;;9.32;2.80;;;4.30;81.40;;;;;;5037093;28;20095;-82
2021/12/11 01:18:11;;;;;;;10.82;2.80;;;4.30;81.40;;;;;;5036913;28;20049;-82
2021/12/11 01:20:53;;;;;;;7.78;2.80;;;4.20;81.40;;;;;;5035537;28;20060;-82
2021/12/11 01:26:04;;;;;;;12.68;2.70;;;4.20;81.40;;;;;;5034040;28;20445;-83
2021/12/11 01:28:32;;;;;;;11.65;2.80;;;4.20;81.40;;;;;;5038746;28;20045;-84
2021/12/11 01:31:01;;;;;;;10.32;2.47;;;4.20;81.40;;;;;;5036647;28;20052;-83
2021/12/11 01:33:29;;;;;;;9.23;2.78;;;4.20;81.40;;;;;;5036469;28;20555;-83
2021/12/11 01:35:56;;;;;;;8.40;2.92;;;4.10;81.40;;;;;;5036095;28;20386;-82
2021/12/11 01:38:28;;;;;;;9.05;2.65;;;4.10;81.40;;;;;;5033692;28;20425;-83
2021/12/11 01:41:04;;;;;;;9.65;2.72;;;4.00;81.40;;;;;;5034400;28;20576;-82
2021/12/11 01:43:34;;;;;;;10.65;2.97;;;4.10;81.40;;;;;;5037610;28;20057;-82
2021/12/11 01:46:03;;;;;;;9.50;3.08;;;4.00;81.40;;;;;;5036211;28;20662;-82
2021/12/11 01:48:41;;;;;;;11.77;3.28;;;4.00;81.40;;;;;;5036394;28;20587;-82
2021/12/11 01:51:15;;;;;;;9.90;2.88;;;4.00;81.40;;;;;;5035916;28;20045;-82
2021/12/11 01:53:49;;;;;;;9.85;2.63;;;4.00;81.50;;;;;;5036015;28;20045;-82
2021/12/11 01:56:22;;;;;;;8.18;2.58;;;4.00;81.40;;;;;;5017397;28;20502;-82
2021/12/11 01:59:04;;;;;;;11.45;2.60;;;4.00;81.50;;;;;;5035580;28;20049;-82
2021/12/11 02:01:41;;;;;;;15.25;2.90;;;4.00;81.50;;;;;;5037269;28;20083;-82
2021/12/11 02:04:10;;;;;;;10.90;2.65;;;4.00;81.50;;;;;;5033312;28;20060;-81
2021/12/11 02:06:41;;;;;;;5.35;2.22;;;4.00;81.50;;;;;;5034871;28;20481;-82
2021/12/11 02:09:26;;;;;;;12.50;2.63;;;3.90;81.50;;;;;;5035879;28;20077;-82
2021/12/11 02:12:06;;;;;;;7.95;2.78;;;3.90;81.60;;;;;;5035933;28;20040;-82
2021/12/11 02:14:39;;;;;;;13.80;3.28;;;3.90;81.60;;;;;;5034286;28;20509;-82
2021/12/11 02:17:24;;;;;;;8.02;2.45;;;3.90;81.60;;;;;;5032016;28;20136;-82
2021/12/11 02:19:52;;;;;;;14.63;2.63;;;3.90;81.70;;;;;;5060930;28;20053;-84
2021/12/11 02:22:24;;;;;;;12.65;2.30;;;3.90;81.70;;;;;;5069176;28;20045;-83
2021/12/11 02:24:56;;;;;;;9.48;2.58;;;3.90;81.70;;;;;;5035393;28;20059;-83
2021/12/11 02:27:30;;;;;;;7.82;2.30;;;3.90;81.70;;;;;;5035653;28;20041;-82
2021/12/11 02:30:26;;;;;;;;;;;3.90;81.70;;;;;;5036144;28;20048;-82
2021/12/11 02:33:32;;;;;;;11.05;2.40;;;3.90;81.70;;;;;;5034493;28;19925;-82
2021/12/11 02:36:11;;;;;;;14.98;2.72;;;3.90;81.70;;;;;;5009926;28;20057;-82
2021/12/11 02:38:59;;;;;;;7.85;2.63;;;3.90;81.70;;;;;;5009981;28;20050;-81
2021/12/11 02:41:31;;;;;;;11.30;3.90;;;3.90;81.70;;;;;;4996554;28;20088;-82
2021/12/11 02:44:06;;;;;;;8.52;2.53;;;3.80;81.70;;;;;;5010023;28;20097;-81
2021/12/11 02:46:42;;;;;;;9.45;2.60;;;3.80;81.70;;;;;;5010449;28;20041;-82
2021/12/11 02:49:15;;;;;;;10.48;2.53;;;3.80;81.70;;;;;;5009726;28;20046;-82
2021/12/11 02:51:47;;;;;;;7.60;2.17;;;3.70;81.70;;;;;;5009883;28;20062;-84
2021/12/11 02:54:21;;;;;;;8.60;2.42;;;3.70;81.70;;;;;;5009775;28;20056;-82
2021/12/11 02:56:55;;;;;;;8.48;2.42;;;3.70;81.70;;;;;;5009701;28;20052;-83
2021/12/11 02:59:26;;;;;;;13.10;2.80;;;3.70;81.80;;;;;;5009557;28;20054;-83
2021/12/11 03:01:58;;;;;;;14.52;2.55;;;3.70;81.80;;;;;;5009412;28;20049;-83
2021/12/11 03:04:54;;;;;;;11.77;2.58;;;3.70;81.80;;;;;;4992350;28;20108;-82
2021/12/11 03:07:24;;;;;;;9.07;2.15;;;3.70;81.80;;;;;;5008815;28;20050;-82
2021/12/11 03:09:56;;;;;;;8.63;2.30;;;3.70;81.80;;;;;;5009450;28;20052;-82
2021/12/11 03:12:25;;;;;;;9.52;2.15;;;3.70;81.80;;;;;;5031285;28;20055;-83
2021/12/11 03:14:52;;;;;;;10.48;2.35;;;3.70;81.80;;;;;;5034805;28;20517;-82
2021/12/11 03:17:21;;;;;;;12.10;3.08;;;3.60;81.80;;;;;;5030652;28;20052;-83
2021/12/11 03:19:51;;;;;;;8.30;2.30;;;3.60;81.80;;;;;;5034606;28;20045;-82
2021/12/11 03:22:27;;;;;;;14.85;3.00;;;3.60;81.90;;;;;;5035853;28;20502;-82
2021/12/11 03:24:55;;;;;;;9.82;2.50;;;3.60;81.90;;;;;;5034453;28;20057;-82
2021/12/11 03:27:22;;;;;;;9.55;2.90;;;3.60;81.90;;;;;;5034482;28;20549;-82
2021/12/11 03:29:49;;;;;;;9.68;2.20;;;3.60;81.90;;;;;;5034355;28;20040;-82
2021/12/11 03:32:17;;;;;;;12.88;2.70;;;3.60;81.90;;;;;;5029110;28;20065;-82
2021/12/11 03:34:45;;;;;;;13.57;2.85;;;3.60;81.90;;;;;;5034964;28;20041;-81
2021/12/11 03:37:15;;;;;;;10.07;2.67;;;3.60;81.90;;;;;;5033812;28;20050;-82
2021/12/11 03:39:45;;;;;;;11.38;2.55;;;3.60;81.90;;;;;;5032747;28;20057;-82
2021/12/11 03:42:30;;;;;;;15.52;2.67;;;3.60;81.90;;;;;;5034289;28;20053;-83
2021/12/11 03:45:04;;;;;;;6.70;2.35;;;3.60;81.90;;;;;;5034228;28;20041;-82
2021/12/11 03:47:38;;;;;;;18.73;3.05;;;3.60;81.90;;;;;;5032007;28;20049;-82
2021/12/11 03:50:11;;;;;;;12.32;2.80;;;3.60;81.90;;;;;;5030429;28;20060;-82
2021/12/11 03:52:39;;;;;;;13.88;2.78;;;3.50;81.90;;;;;;5042764;28;20049;-82
2021/12/11 03:55:07;;;;;;;9.82;2.42;;;3.60;81.90;;;;;;5034063;28;20624;-82
2021/12/11 03:57:37;;;;;;;12.75;2.47;;;3.50;81.90;;;;;;5033812;28;20064;-82
2021/12/11 04:00:09;;;;;;;10.00;2.35;;;3.50;82.00;;;;;;5033427;28;20045;-82
2021/12/11 04:02:36;;;;;;;9.98;2.72;;;3.50;82.00;;;;;;5032777;28;20055;-82
2021/12/11 04:05:06;;;;;;;12.73;3.17;;;3.50;82.00;;;;;;5030302;28;20537;-81
2021/12/11 04:07:44;;;;;;;9.95;2.63;;;3.50;82.00;;;;;;5035814;28;20055;-82
2021/12/11 04:10:14;;;;;;;13.05;2.85;;;3.50;82.00;;;;;;5032761;28;20057;-82
2021/12/11 04:12:42;;;;;;;8.85;2.47;;;3.50;82.00;;;;;;5033660;28;20054;-82
2021/12/11 04:15:10;;;;;;;14.63;2.65;;;3.50;82.00;;;;;;5033222;28;20449;-82
2021/12/11 04:17:37;;;;;;;7.97;2.30;;;3.50;82.00;;;;;;5030019;28;20037;-82
2021/12/11 04:20:11;;;;;;;13.35;2.85;;;3.50;82.00;;;;;;5029960;28;20046;-82
2021/12/11 04:22:38;;;;;;;12.35;2.72;;;3.50;82.00;;;;;;5042274;28;20080;-83
2021/12/11 04:25:09;;;;;;;15.70;2.72;;;3.50;82.00;;;;;;5033531;28;20068;-82
2021/12/11 04:27:37;;;;;;;11.32;2.50;;;3.50;82.00;;;;;;5033238;28;20460;-82
2021/12/11 04:30:08;;;;;;;8.82;2.38;;;3.50;82.00;;;;;;5032687;28;20533;-82
2021/12/11 04:32:38;;;;;;;9.43;2.55;;;3.50;82.00;;;;;;5032212;28;20045;-82
2021/12/11 04:35:07;;;;;;;10.75;2.47;;;3.50;82.10;;;;;;5029755;28;20056;-82
2021/12/11 04:37:36;;;;;;;10.73;2.67;;;3.50;82.00;;;;;;5035289;28;20049;-82
2021/12/11 04:40:13;;;;;;;9.90;2.53;;;3.50;82.00;;;;;;5033205;28;20502;-82
2021/12/11 04:43:01;;;;;;;11.40;2.92;;;3.50;82.00;;;;;;5033326;28;20049;-82
2021/12/11 04:45:35;;;;;;;10.98;2.90;;;3.50;82.00;;;;;;5032858;28;20045;-82
2021/12/11 04:48:17;;;;;;;10.13;2.42;;;3.50;82.00;;;;;;5033112;28;20053;-82
2021/12/11 05:07:20;;;;;;;12.80;2.45;;;3.40;81.90;;;;;;4986698;28;20046;-82
2021/12/11 05:10:02;;;;;;;12.60;2.50;;;3.30;81.90;;;;;;4986621;28;20089;-82
2021/12/11 05:12:36;;;;;;;9.73;2.55;;;3.30;82.00;;;;;;4986310;28;20046;-82
2021/12/11 05:15:31;;;;;;;10.95;2.65;;;3.30;82.00;;;;;;4986607;28;20537;-82
2021/12/11 05:18:00;;;;;;;8.85;2.33;;;3.30;81.90;;;;;;4985839;28;20209;-82
2021/12/11 05:20:32;;;;;;;8.50;2.78;;;3.30;82.00;;;;;;4986692;28;20076;-82
2021/12/11 05:22:59;;;;;;;9.65;2.78;;;3.30;82.00;;;;;;4986527;28;20065;-82
2021/12/11 05:25:27;;;;;;;14.10;2.95;;;3.20;82.00;;;;;;4988421;28;20495;-82
2021/12/11 05:27:54;;;;;;;11.30;3.03;;;3.20;82.00;;;;;;4984768;28;20050;-82
2021/12/11 05:30:30;;;;;;;8.48;2.50;;;3.20;82.00;;;;;;5027590;28;20049;-82
2021/12/11 05:32:59;;;;;;;11.05;3.20;;;3.20;82.00;;;;;;5032817;28;20041;-82
2021/12/11 05:35:28;;;;;;;9.13;3.17;;;3.20;82.00;;;;;;5028856;28;20064;-82
2021/12/11 05:37:56;;;;;;;11.55;3.50;;;3.20;82.00;;;;;;5030867;28;20059;-82
2021/12/11 05:40:26;;;;;;;13.15;2.78;;;3.20;82.00;;;;;;5034771;28;20060;-82
2021/12/11 05:42:53;;;;;;;12.70;2.72;;;3.20;82.10;;;;;;5036141;28;20055;-82
2021/12/11 05:45:21;;;;;;;12.95;2.67;;;3.20;82.10;;;;;;5036330;28;20051;-82
2021/12/11 05:47:48;;;;;;;12.05;3.15;;;3.20;82.10;;;;;;5036459;28;20041;-82
2021/12/11 05:50:21;;;;;;;14.50;3.28;;;3.20;82.10;;;;;;5032295;28;20426;-82
2021/12/11 05:52:49;;;;;;;13.43;3.42;;;3.20;82.20;;;;;;5036315;28;20045;-82
2021/12/11 05:55:18;;;;;;;18.48;3.17;;;3.20;82.10;;;;;;5037352;28;20072;-82
2021/12/11 05:57:53;;;;;;;11.65;3.15;;;3.20;82.20;;;;;;5035843;28;20050;-82
2021/12/11 06:00:33;;;;;;;15.88;3.58;;;3.20;82.20;;;;;;5036048;28;20056;-82
2021/12/11 06:03:03;;;;;;;11.38;3.50;;;3.20;82.30;;;;;;5036131;28;20493;-82
2021/12/11 06:05:31;;;;;;;12.85;3.28;;;3.10;82.30;;;;;;5033984;28;20564;-83
2021/12/11 06:07:58;;;;;;;17.48;3.70;;;3.20;82.30;;;;;;5033459;28;20045;-82
2021/12/11 06:10:27;;;;;;;10.82;3.05;;;3.20;82.30;;;;;;5037595;28;20045;-82
2021/12/11 06:13:01;;;;;;;13.40;3.40;;;3.10;82.40;;;;;;5035901;28;20052;-82
2021/12/11 06:15:29;;;;;;;12.32;3.17;;;3.20;82.40;;;;;;5035932;28;20518;-82
2021/12/11 06:17:57;;;;;;;13.80;3.53;;;3.20;82.40;;;;;;5035954;28;20041;-82
2021/12/11 06:20:27;;;;;;;11.13;3.15;;;3.20;82.40;;;;;;5033033;28;20055;-82
2021/12/11 06:22:58;;;;;;;13.38;2.83;;;3.10;82.40;;;;;;5033136;28;20140;-82
2021/12/11 06:25:29;;;;;;;12.48;3.00;;;3.10;82.40;;;;;;5037142;28;20055;-82
2021/12/11 06:27:57;;;;;;;8.77;2.60;;;3.20;82.40;;;;;;5035556;28;20075;-82
2021/12/11 06:30:24;;;;;;;14.00;3.35;;;3.10;82.40;;;;;;5035558;28;20059;-82
2021/12/11 06:32:52;;;;;;;16.80;3.58;;;3.10;82.40;;;;;;5035586;28;20059;-82
2021/12/11 06:35:26;;;;;;;9.00;2.97;;;3.10;82.40;;;;;;5032030;28;20051;-81
2021/12/11 06:37:54;;;;;;;13.43;3.45;;;3.10;82.40;;;;;;5034362;28;20054;-81
2021/12/11 06:40:22;;;;;;;13.27;3.15;;;3.10;82.50;;;;;;5036775;28;20144;-84
2021/12/11 06:42:51;;;;;;;16.00;3.40;;;3.10;82.40;;;;;;5035406;28;20075;-83
2021/12/11 06:45:19;;;;;;;12.00;3.25;;;3.10;82.50;;;;;;5035130;28;20498;-83
2021/12/11 06:47:46;;;;;;;12.20;2.95;;;3.10;82.50;;;;;;5035339;28;20040;-82
2021/12/11 06:50:14;;;;;;;11.88;3.20;;;3.10;82.50;;;;;;5028429;28;20513;-81
2021/12/11 06:52:42;;;;;;;12.75;3.25;;;3.10;82.50;;;;;;5038781;28;20063;-82
2021/12/11 06:55:13;;;;;;;11.07;3.10;;;3.10;82.60;;;;;;5045049;28;20064;-82
2021/12/11 06:57:44;;;;;;;11.82;3.17;;;3.10;82.60;;;;;;5038702;28;20102;-82
2021/12/11 07:00:18;;;;;;;12.38;3.25;;;3.10;82.60;;;;;;5035516;28;20087;-82
2021/12/11 07:02:45;;;;;;;13.05;3.30;;;3.10;82.60;;;;;;5036220;28;20152;-83
2021/12/11 07:05:13;;;;;;;15.32;3.25;;;3.10;82.60;;;;;;5016029;28;20050;-83
2021/12/11 07:07:42;;;;;;;15.60;3.20;;;3.10;82.60;;;;;;5045052;28;20051;-83
2021/12/11 07:10:13;;;;;;;13.07;2.95;;;3.10;82.70;;;;;;5035028;28;20041;-82
2021/12/11 07:12:44;;;;;;;17.02;3.38;;;3.10;82.70;;;;;;5035965;28;20049;-83
2021/12/11 07:15:11;;;;;;;14.43;3.25;;;3.10;82.70;;;;;;5035688;28;20045;-82
2021/12/11 07:17:39;;;;;;;10.57;3.40;;;3.10;82.70;;;;;;5035131;28;20049;-83
2021/12/11 07:20:09;;;;;;;9.63;3.33;;;3.10;82.70;;;;;;5031711;28;20448;-84
2021/12/11 07:22:40;;;;;;;10.05;3.05;;;3.10;82.70;;;;;;5037427;28;20045;-83
2021/12/11 07:25:18;;;;;;;14.82;3.70;;;3.10;82.70;;;;;;5035126;28;20429;-82
2021/12/11 07:27:46;;;;;;;10.25;3.00;;;3.10;82.60;;;;;;5034561;28;20056;-82
2021/12/11 07:30:14;;;;;;;9.82;2.95;;;3.10;82.60;;;;;;5035341;28;20049;-83
2021/12/11 07:32:41;;;;;;;12.57;3.28;;;3.10;82.60;;;;;;5032503;28;20049;-82
2021/12/11 07:35:09;;;;;;;12.52;3.42;;;3.10;82.60;;;;;;5031461;28;20041;-82
2021/12/11 07:37:36;;;;;;;13.00;3.70;;;3.00;82.60;;;;;;5036905;28;20086;-82
2021/12/11 07:40:09;;;;;;;12.85;2.90;;;3.00;82.60;;;;;;5035140;28;20073;-84
2021/12/11 07:42:36;;;;;;;11.65;3.28;;;3.00;82.60;;;;;;5035164;28;20450;-83
2021/12/11 07:45:04;;;;;;;19.42;3.88;;;3.00;82.60;;;;;;5033368;28;20045;-83
2021/12/11 07:47:32;;;;;;;11.90;3.40;;;3.00;82.60;;;;;;5046771;28;20052;-82
2021/12/11 08:04:05;;;;;;;13.43;3.70;;;3.00;82.60;;;;;;5111165;27;20433;-93
2021/12/11 08:06:34;;;;;;;10.52;3.22;;;3.30;82.10;;;;;;5111731;28;20052;-94
2021/12/11 08:09:05;;;;;;;17.58;3.60;;;3.30;82.00;;;;;;5110130;28;20052;-93
2021/12/11 08:11:32;;;;;;;9.57;2.97;;;3.30;81.90;;;;;;5109002;28;20044;-85
2021/12/11 08:14:00;;;;;;;13.60;4.25;;;3.20;81.90;;;;;;5107392;28;20424;-85
2021/12/11 08:16:34;;;;;;;15.45;3.88;;;3.20;81.90;;;;;;5107450;28;20044;-86
2021/12/11 08:19:04;;;;;;;15.07;4.35;;;3.20;81.90;;;;;;5092083;28;20075;-87
2021/12/11 08:21:31;;;;;;;12.10;3.58;;;3.10;82.00;;;;;;5108564;28;20054;-86
2021/12/11 08:24:04;;;;;;;13.88;4.22;;;3.10;82.10;;;;;;5105594;28;20054;-86
2021/12/11 08:26:33;;;;;;;18.63;4.10;;;3.00;82.10;;;;;;5107031;28;20176;-86
2021/12/11 08:29:06;;;;;;;10.48;3.92;;;3.00;82.20;;;;;;5107154;28;20047;-86
2021/12/11 08:31:33;;;;;;;13.95;4.60;;;3.00;82.20;;;;;;5106568;28;20526;-86
2021/12/11 08:34:01;;;;;;;13.00;4.20;;;3.00;82.30;;;;;;5105829;28;20039;-86
2021/12/11 08:36:28;;;;;;;14.25;4.38;;;3.00;82.30;;;;;;5108739;28;20054;-86
2021/12/11 08:38:57;;;;;;;17.15;5.35;;;2.90;82.40;;;;;;5105618;28;20051;-85
2021/12/11 08:41:27;;;;;;;15.35;5.47;;;2.90;82.40;;;;;;5105609;28;20139;-87
2021/12/11 08:44:00;;;;;;;18.42;4.72;;;2.90;82.40;;;;;;5106859;28;20044;-87
2021/12/11 08:46:29;;;;;;;12.02;4.90;;;2.90;82.50;;;;;;5106599;28;20044;-87
2021/12/11 08:49:04;;;;;;;20.98;5.55;;;2.90;82.60;;;;;;5090867;28;20059;-86
2021/12/11 08:51:42;;;;;;;15.80;5.72;;;2.90;82.60;;;;;;5104708;28;20545;-86
2021/12/11 08:54:10;;;;;;;16.23;5.40;;;2.90;82.60;;;;;;5121066;28;20069;-86
2021/12/11 08:56:41;;;;;;;17.20;6.20;;;2.90;82.70;;;;;;5108661;27;20508;-86
2021/12/11 08:59:12;;;;;;;15.55;6.20;;;2.90;82.70;;;;;;5106465;28;20054;-87
2021/12/11 09:01:43;;;;;;;14.55;6.00;;;2.90;82.70;;;;;;5105819;28;20050;-86
2021/12/11 09:04:22;;;;;;;12.65;5.97;;;2.90;82.80;;;;;;5097272;28;20040;-86
2021/12/11 09:07:01;;;;;;;14.88;5.82;;;2.90;82.90;;;;;;5092629;28;20054;-87
2021/12/11 09:09:43;;;;;;;14.98;5.63;;;2.90;82.90;;;;;;5090616;28;20050;-85
2021/12/11 09:12:29;;;;;;;14.80;6.20;;;2.90;82.90;;;;;;5092984;28;20523;-85
2021/12/11 09:15:14;;;;;;;17.42;5.75;;;2.90;83.00;;;;;;5091910;28;20054;-86
2021/12/11 09:17:46;;;;;;;18.70;6.15;;;3.00;83.00;;;;;;5091092;28;20044;-86
2021/12/11 09:20:23;;;;;;;17.17;5.18;;;2.90;83.10;;;;;;5090640;28;20421;-85
2021/12/11 09:23:04;;;;;;;16.25;5.63;;;3.00;83.10;;;;;;5092617;28;20044;-86
2021/12/11 09:25:42;;;;;;;18.15;5.72;;;3.00;83.20;;;;;;5092259;28;20036;-86
2021/12/11 09:28:27;;;;;;;17.42;5.18;;;3.00;83.20;;;;;;5092205;28;20044;-85
2021/12/11 09:30:58;;;;;;;19.50;4.85;;;3.10;83.30;;;;;;5092098;28;20041;-86
2021/12/11 09:33:36;;;;;;;12.50;4.93;;;3.10;83.30;;;;;;5090327;28;20048;-85
2021/12/11 09:36:11;;;;;;;15.52;5.13;;;3.10;83.40;;;;;;5093472;28;20048;-85
2021/12/11 09:38:49;;;;;;;19.42;5.78;;;3.10;83.40;;;;;;5091933;28;20052;-85
2021/12/11 09:41:21;;;;;;;16.02;4.97;;;3.20;83.50;;;;;;5092180;28;20131;-85
2021/12/11 09:44:18;;;;;;;19.25;5.53;;;3.20;83.60;;;;;;5092148;28;20048;-85
2021/12/11 09:46:50;;;;;;;19.48;5.63;;;3.30;83.70;;;;;;5091456;28;20058;-84
2021/12/11 09:49:21;;;;;;;19.02;5.50;;;3.40;83.70;;;;;;5091427;28;20055;-84
2021/12/11 09:51:51;;;;;;;23.83;6.13;;;3.40;83.80;;;;;;5089584;28;20040;-84
2021/12/11 09:54:22;;;;;;;21.27;5.68;;;3.50;83.80;;;;;;5092324;28;20519;-84
2021/12/11 09:56:57;;;;;;;17.15;5.68;;;3.70;83.80;;;;;;5090706;28;20040;-85
2021/12/11 09:59:27;;;;;;;22.00;6.13;;;3.80;83.80;;;;;;5089522;28;20051;-84
2021/12/11 10:02:00;;;;;;;19.55;5.45;;;4.00;83.80;;;;;;5089182;28;20048;-84
2021/12/11 10:04:39;;;;;;;23.05;6.00;;;4.10;83.70;;;;;;5090386;28;20048;-85
2021/12/11 10:07:26;;;;;;;21.80;7.05;;;4.30;83.60;;;;;;5076129;28;20582;-84
2021/12/11 10:10:12;;;;;;;16.15;6.57;;;4.50;83.50;;;;;;5090653;28;20049;-85
2021/12/11 10:12:46;;;;;;;24.23;6.30;;;4.70;83.50;;;;;;5089159;28;20052;-85
2021/12/11 10:15:25;;;;;;;15.15;5.88;;;4.90;83.40;;;;;;5090174;28;20040;-85
2021/12/11 10:18:00;;;;;;;18.25;5.28;;;5.10;83.20;;;;;;5088053;28;20493;-85
2021/12/11 10:20:46;;;;;;;19.95;5.43;;;5.30;83.10;;;;;;5089880;28;20054;-85
2021/12/11 10:23:18;;;;;;;21.17;5.30;;;5.50;83.00;;;;;;5088975;28;20050;-85
2021/12/11 10:25:47;;;;;;;14.10;4.53;;;5.70;82.80;;;;;;5090086;28;20044;-85
2021/12/11 10:28:18;;;;;;;15.23;4.80;;;5.90;82.60;;;;;;5090163;28;20048;-85
2021/12/11 10:30:51;;;;;;;14.27;4.88;;;6.00;82.50;;;;;;5090416;28;20044;-85
2021/12/11 10:33:22;;;;;;;16.77;4.18;;;6.10;82.30;;;;;;5091067;28;20424;-85
2021/12/11 10:35:53;;;;;;;20.98;4.70;;;6.20;82.10;;;;;;5089982;28;20040;-85
2021/12/11 10:38:20;;;;;;;15.20;3.85;;;6.30;81.90;;;;;;5088618;28;20040;-85
2021/12/11 10:40:53;;;;;;;20.95;4.70;;;6.30;81.80;;;;;;5089805;28;20048;-85
2021/12/11 10:43:28;;;;;;;17.58;4.18;;;6.40;81.60;;;;;;5089912;28;20048;-85
2021/12/11 10:45:58;;;;;;;15.98;3.97;;;6.40;81.50;;;;;;5071190;28;20047;-85
2021/12/11 10:48:31;;;;;;;12.35;4.13;;;6.40;81.40;;;;;;5091544;28;20044;-85
2021/12/11 10:51:06;;;;;;;16.63;3.72;;;6.40;81.30;;;;;;5090605;28;20048;-85
2021/12/11 10:53:35;;;;;;;15.85;3.92;;;6.40;81.20;;;;;;5089388;28;20498;-85
2021/12/11 10:56:05;;;;;;;14.85;4.05;;;6.40;81.10;;;;;;5089531;28;20040;-85
2021/12/11 10:58:40;;;;;;;14.18;4.25;;;6.40;81.00;;;;;;5089679;28;20048;-85
2021/12/11 11:01:17;;;;;;;17.00;4.00;;;6.30;81.00;;;;;;5089553;28;20044;-85
2021/12/11 11:03:49;;;;;;;12.18;3.45;;;6.40;81.00;;;;;;5089029;28;20060;-85
2021/12/11 11:06:16;;;;;;;17.55;4.22;;;6.40;81.00;;;;;;5091558;28;20052;-85
2021/12/11 11:08:46;;;;;;;13.60;3.70;;;6.40;81.00;;;;;;5089289;28;20044;-85
2021/12/11 11:11:16;;;;;;;15.75;4.60;;;6.40;80.90;;;;;;5087940;28;20460;-85
2021/12/11 11:13:45;;;;;;;11.80;3.75;;;6.40;80.90;;;;;;5089099;28;20066;-84
2021/12/11 11:16:14;;;;;;;24.50;4.90;;;6.40;80.90;;;;;;5087813;28;20036;-84
2021/12/11 11:18:41;;;;;;;16.35;3.85;;;6.40;80.90;;;;;;5088091;28;20044;-84
2021/12/11 11:21:23;;;;;;;21.73;4.78;;;6.50;81.00;;;;;;5091271;28;20043;-85
2021/12/11 11:23:51;;;;;;;21.70;4.88;;;6.50;81.00;;;;;;5089157;28;20048;-84
2021/12/11 11:26:26;;;;;;;18.48;3.80;;;6.50;81.00;;;;;;5088831;28;20056;-85
2021/12/11 11:28:54;;;;;;;23.02;5.18;;;6.60;81.00;;;;;;5089064;28;20048;-84
2021/12/11 11:31:26;;;;;;;17.88;4.93;;;6.60;81.00;;;;;;5088736;28;20040;-84
2021/12/11 11:33:55;;;;;;;20.08;4.53;;;6.60;81.00;;;;;;5089041;28;20052;-84
2021/12/11 11:36:26;;;;;;;17.38;4.00;;;6.70;81.10;;;;;;5091137;28;20063;-84
2021/12/11 11:38:56;;;;;;;17.00;3.80;;;6.80;81.20;;;;;;5086620;28;20059;-83
2021/12/11 11:41:30;;;;;;;12.30;3.30;;;6.80;81.20;;;;;;5088910;28;20046;-84
2021/12/11 11:43:59;;;;;;;14.23;3.45;;;6.80;81.20;;;;;;5088781;28;20047;-85
2021/12/11 11:46:27;;;;;;;12.30;3.60;;;6.90;81.10;;;;;;5088756;28;20040;-85
2021/12/11 11:48:57;;;;;;;14.75;3.22;;;6.90;81.10;;;;;;5087997;28;20441;-85
2021/12/11 11:51:33;;;;;;;15.73;3.53;;;6.90;81.10;;;;;;5086844;28;20081;-85
2021/12/11 11:54:02;;;;;;;19.58;3.90;;;6.90;81.10;;;;;;5088675;28;20048;-84
2021/12/11 11:56:33;;;;;;;11.45;3.30;;;6.90;81.20;;;;;;5088808;28;20050;-85
2021/12/11 11:59:03;;;;;;;18.80;3.80;;;7.00;81.10;;;;;;5088689;28;20420;-84
2021/12/11 12:01:38;;;;;;;16.75;3.67;;;7.00;81.20;;;;;;5088323;28;20045;-85
2021/12/11 12:04:11;;;;;;;17.48;3.92;;;7.00;81.20;;;;;;5088675;28;20048;-84
2021/12/11 12:06:39;;;;;;;14.45;3.38;;;7.00;81.10;;;;;;5089396;28;20054;-84
2021/12/11 12:09:10;;;;;;;14.75;4.07;;;7.10;81.10;;;;;;5090445;28;20044;-84
2021/12/11 12:11:39;;;;;;;13.80;3.38;;;7.10;81.10;;;;;;5088645;28;20055;-84
2021/12/11 12:14:30;;;;;;;16.40;4.20;;;7.10;81.10;;;;;;5088337;28;20531;-84
2021/12/11 12:16:59;;;;;;;9.68;3.10;;;7.20;81.00;;;;;;5088495;28;20509;-85
2021/12/11 12:19:27;;;;;;;14.65;4.05;;;7.10;81.00;;;;;;5088560;28;20044;-85
2021/12/11 12:21:58;;;;;;;19.33;4.38;;;7.10;80.90;;;;;;5088691;28;20123;-84
2021/12/11 12:24:27;;;;;;;14.18;4.22;;;7.20;80.90;;;;;;5086472;28;20052;-85
2021/12/11 12:26:54;;;;;;;13.10;3.72;;;7.20;80.90;;;;;;5087428;28;20048;-85
2021/12/11 12:29:22;;;;;;;13.50;4.05;;;7.20;80.90;;;;;;5086752;28;20044;-85
2021/12/11 12:31:53;;;;;;;9.35;3.55;;;7.30;80.90;;;;;;5088360;28;20054;-85
2021/12/11 12:34:21;;;;;;;14.70;4.35;;;7.30;80.80;;;;;;5087206;28;20089;-85
2021/12/11 12:36:50;;;;;;;12.77;3.92;;;7.30;80.80;;;;;;5087117;28;20047;-84
2021/12/11 12:39:21;;;;;;;11.00;4.18;;;7.30;80.80;;;;;;5092441;28;20052;-84
2021/12/11 12:42:15;;;;;;;15.20;3.88;;;7.30;80.80;;;;;;5092214;28;20047;-84
2021/12/11 12:44:46;;;;;;;14.20;4.20;;;7.40;80.80;;;;;;5091666;28;20050;-84
2021/12/11 12:47:20;;;;;;;15.50;4.13;;;7.40;80.80;;;;;;5090902;28;20050;-85
2021/12/11 12:49:50;;;;;;;;;;;7.40;80.80;;;;;;5092408;28;20067;-85
2021/12/11 12:52:26;;;;;;;21.75;4.75;;;7.40;80.70;;;;;;5092141;28;19924;-85
2021/12/11 12:54:54;;;;;;;14.40;3.70;;;7.40;80.70;;;;;;5091889;28;20514;-85
2021/12/11 12:57:27;;;;;;;17.05;3.80;;;7.40;80.70;;;;;;5094049;28;20050;-84
2021/12/11 13:00:26;;;;;;;16.87;3.57;;;7.50;80.60;;;;;;5090685;28;20048;-85
2021/12/11 13:02:59;;;;;;;18.20;4.55;;;7.50;80.60;;;;;;5089226;28;20052;-85
2021/12/11 13:05:55;;;;;;;13.10;3.35;;;7.50;80.60;;;;;;5091788;28;20040;-85
2021/12/11 13:08:32;;;;;;;13.35;3.90;;;7.50;80.50;;;;;;5088859;28;20044;-85
2021/12/11 13:11:26;;;;;;;10.82;4.00;;;7.50;80.50;;;;;;5091616;28;20048;-85
2021/12/11 13:13:59;;;;;;;14.48;3.92;;;7.50;80.50;;;;;;5082982;28;20517;-85
2021/12/11 13:16:32;;;;;;;13.10;3.92;;;7.50;80.40;;;;;;5090317;28;20055;-85
2021/12/11 13:19:12;;;;;;;14.90;3.88;;;7.50;80.40;;;;;;5076114;28;20080;-84
2021/12/11 13:21:59;;;;;;;15.45;3.80;;;7.50;80.40;;;;;;5092069;28;20044;-84
2021/12/11 13:24:27;;;;;;;15.95;4.32;;;7.50;80.40;;;;;;5089537;28;20075;-84
2021/12/11 13:27:01;;;;;;;12.82;3.95;;;7.50;80.40;;;;;;5091647;28;20066;-85
2021/12/11 13:29:36;;;;;;;13.85;3.88;;;7.50;80.40;;;;;;5091152;28;20433;-85
2021/12/11 13:32:25;;;;;;;17.88;4.28;;;7.50;80.40;;;;;;5091282;28;20044;-84
2021/12/11 13:34:57;;;;;;;16.13;3.90;;;7.50;80.40;;;;;;5090955;28;20051;-84
2021/12/11 13:37:27;;;;;;;16.05;3.58;;;7.50;80.40;;;;;;5091277;28;20044;-85
2021/12/11 13:39:57;;;;;;;18.90;4.68;;;7.50;80.30;;;;;;5091233;28;20052;-84
2021/12/11 13:42:29;;;;;;;15.23;4.47;;;7.50;80.30;;;;;;5088708;28;20040;-85
2021/12/11 13:45:10;;;;;;;14.02;4.20;;;7.40;80.30;;;;;;5090251;28;20508;-85
2021/12/11 13:47:37;;;;;;;15.68;4.30;;;7.40;80.40;;;;;;5089467;28;20048;-85
2021/12/11 13:50:14;;;;;;;16.27;3.97;;;7.40;80.40;;;;;;5090605;28;20055;-84
2021/12/11 13:52:42;;;;;;;11.43;4.10;;;7.40;80.40;;;;;;5089502;28;20048;-84